createdAt,value
2023-02-13T00:00:25.446Z,4.43
2023-02-13T00:02:52.094Z,5.47
2023-02-13T00:05:18.796Z,5.13
2023-02-13T00:07:45.426Z,4.50
2023-02-13T00:10:12.552Z,4.23
2023-02-13T00:12:39.269Z,3.57
2023-02-13T00:15:06.746Z,4.10
2023-02-13T00:17:33.461Z,4.27
2023-02-13T00:20:00.237Z,5.77
2023-02-13T00:22:27.019Z,4.70
2023-02-13T00:24:53.821Z,4.67
2023-02-13T00:27:20.556Z,6.00
2023-02-13T00:29:47.268Z,4.30
2023-02-13T00:32:15.121Z,4.57
2023-02-13T00:34:42.438Z,4.27
2023-02-13T00:37:09.031Z,4.10
2023-02-13T00:39:35.826Z,4.10
2023-02-13T00:42:02.538Z,4.27
2023-02-13T00:44:29.239Z,4.00
2023-02-13T00:46:55.811Z,3.70
2023-02-13T00:49:23.859Z,4.37
2023-02-13T00:51:50.540Z,4.23
2023-02-13T00:54:17.656Z,3.77
2023-02-13T00:56:44.492Z,3.53
2023-02-13T00:59:13.321Z,3.60
2023-02-13T01:01:39.989Z,3.37
2023-02-13T01:04:06.876Z,3.30
2023-02-13T01:06:33.435Z,2.90
2023-02-13T01:09:00.188Z,2.83
2023-02-13T01:11:26.896Z,2.60
2023-02-13T01:13:55.196Z,3.00
2023-02-13T01:16:21.898Z,2.60
2023-02-13T01:18:48.678Z,2.73
2023-02-13T01:21:21.516Z,2.77
2023-02-13T01:23:48.425Z,2.70
2023-02-13T01:26:33.394Z,2.43
2023-02-13T01:29:00.145Z,2.90
2023-02-13T01:31:27.444Z,3.00
2023-02-13T01:33:57.191Z,2.80
2023-02-13T01:36:24.359Z,2.93
2023-02-13T01:38:56.379Z,3.17
2023-02-13T01:41:25.280Z,3.17
2023-02-13T01:43:55.188Z,3.20
2023-02-13T01:46:31.694Z,3.10
2023-02-13T01:49:07.693Z,3.00
2023-02-13T01:51:36.351Z,3.77
2023-02-13T01:54:13.154Z,3.20
2023-02-13T01:56:51.793Z,3.23
2023-02-13T01:59:28.927Z,3.83
2023-02-13T02:01:57.051Z,4.70
2023-02-13T02:04:32.090Z,4.40
2023-02-13T02:07:04.602Z,5.03
2023-02-13T02:09:38.790Z,3.93
2023-02-13T02:12:26.264Z,3.80
2023-02-13T02:14:55.708Z,4.83
2023-02-13T02:17:26.080Z,4.23
2023-02-13T02:20:23.579Z,4.80
2023-02-13T02:22:58.287Z,4.00
2023-02-13T02:25:40.123Z,4.47
2023-02-13T02:28:29.806Z,4.90
2023-02-13T02:31:53.716Z,5.10
2023-02-13T02:34:47.931Z,5.13
2023-02-13T02:37:56.698Z,4.83
2023-02-13T02:40:46.293Z,5.00
2023-02-13T02:43:21.955Z,5.03
2023-02-13T02:46:17.164Z,4.70
2023-02-13T02:49:02.339Z,5.60
2023-02-13T02:52:00.959Z,4.97
2023-02-13T02:54:37.762Z,5.97
2023-02-13T02:57:14.653Z,5.20
2023-02-13T02:59:44.293Z,4.63
2023-02-13T03:02:13.248Z,5.23
2023-02-13T03:04:47.511Z,4.57
2023-02-13T03:07:17.874Z,6.57
2023-02-13T03:09:48.952Z,5.23
2023-02-13T03:12:21.496Z,4.40
2023-02-13T03:14:48.446Z,5.27
2023-02-13T03:17:16.977Z,4.53
2023-02-13T03:19:55.286Z,4.67
2023-02-13T03:22:21.969Z,4.40
2023-02-13T03:25:06.996Z,5.80
2023-02-13T03:27:42.895Z,5.70
2023-02-13T03:30:25.216Z,5.23
2023-02-13T03:33:13.359Z,5.03
2023-02-13T03:35:48.964Z,6.13
2023-02-13T03:38:23.360Z,6.20
2023-02-13T03:41:05.330Z,5.87
2023-02-13T03:43:42.567Z,5.40
2023-02-13T03:46:10.623Z,6.00
2023-02-13T03:48:40.371Z,6.40
2023-02-13T03:51:10.366Z,7.13
2023-02-13T03:53:40.336Z,5.73
2023-02-13T03:56:09.618Z,5.73
2023-02-13T03:58:42.373Z,5.90
2023-02-13T04:01:12.147Z,7.30
2023-02-13T04:03:52.566Z,7.33
2023-02-13T04:06:23.947Z,7.03
2023-02-13T04:08:50.638Z,5.17
2023-02-13T04:11:26.072Z,6.13
2023-02-13T04:16:57.863Z,6.40
2023-02-13T04:22:12.302Z,5.93
2023-02-13T04:24:38.979Z,5.60
2023-02-13T04:27:05.663Z,6.10
2023-02-13T04:29:32.347Z,6.53
2023-02-13T04:31:59.073Z,6.27
2023-02-13T04:34:25.735Z,6.63
2023-02-13T04:36:52.517Z,5.50
2023-02-13T04:39:19.303Z,4.47
2023-02-13T04:41:45.943Z,4.30
2023-02-13T04:44:12.664Z,5.30
2023-02-13T04:46:39.369Z,4.20
2023-02-13T04:49:05.976Z,4.23
2023-02-13T04:51:32.833Z,5.27
2023-02-13T04:53:59.454Z,4.23
2023-02-13T04:56:26.125Z,4.07
2023-02-13T04:58:52.904Z,4.60
2023-02-13T05:01:19.634Z,4.40
2023-02-13T05:03:46.298Z,4.63
2023-02-13T05:06:13.266Z,5.27
2023-02-13T05:08:40.420Z,5.30
2023-02-13T05:11:07.519Z,4.80
2023-02-13T05:13:34.920Z,4.77
2023-02-13T05:16:01.786Z,5.10
2023-02-13T05:18:28.715Z,4.43
2023-02-13T05:20:56.646Z,4.83
2023-02-13T05:23:23.357Z,5.03
2023-02-13T05:25:50.587Z,4.90
2023-02-13T05:28:18.094Z,5.10
2023-02-13T05:30:47.013Z,4.67
2023-02-13T05:33:13.748Z,5.67
2023-02-13T05:35:40.519Z,5.87
2023-02-13T05:38:07.260Z,6.50
2023-02-13T05:40:34.013Z,5.93
2023-02-13T05:43:00.677Z,6.93
2023-02-13T05:45:27.468Z,6.33
2023-02-13T05:47:54.438Z,6.50
2023-02-13T05:50:21.254Z,6.87
2023-02-13T05:52:47.821Z,6.83
2023-02-13T05:55:14.827Z,6.77
2023-02-13T05:57:41.563Z,6.53
2023-02-13T06:00:08.670Z,6.43
2023-02-13T06:02:35.414Z,6.80
2023-02-13T06:05:02.215Z,6.37
2023-02-13T06:07:28.910Z,6.60
2023-02-13T06:09:56.293Z,6.93
2023-02-13T06:12:23.455Z,6.53
2023-02-13T06:14:50.209Z,6.83
2023-02-13T06:17:16.948Z,7.37
2023-02-13T06:19:44.009Z,6.10
2023-02-13T06:22:10.664Z,6.67
2023-02-13T06:24:37.500Z,6.83
2023-02-13T06:27:04.247Z,7.00
2023-02-13T06:29:31.267Z,6.87
2023-02-13T06:31:58.097Z,5.97
2023-02-13T06:34:25.040Z,6.60
2023-02-13T06:36:53.036Z,6.47
2023-02-13T06:39:19.932Z,6.87
2023-02-13T06:41:46.689Z,5.50
2023-02-13T06:44:13.349Z,6.30
2023-02-13T06:46:40.206Z,5.70
2023-02-13T06:49:06.923Z,6.87
2023-02-13T06:51:33.516Z,6.00
2023-02-13T06:54:41.075Z,6.23
2023-02-13T06:57:12.338Z,5.70
2023-02-13T06:59:39.074Z,7.10
2023-02-13T07:02:06.737Z,6.83
2023-02-13T07:04:33.794Z,7.90
2023-02-13T07:07:01.706Z,6.90
2023-02-13T07:09:28.713Z,8.10
2023-02-13T07:11:55.359Z,7.60
2023-02-13T07:14:22.254Z,7.43
2023-02-13T07:16:49.123Z,7.43
2023-02-13T07:19:16.028Z,6.97
2023-02-13T07:21:43.153Z,7.50
2023-02-13T07:24:10.126Z,7.77
2023-02-13T07:26:36.856Z,7.60
2023-02-13T07:29:11.176Z,6.93
2023-02-13T07:31:51.952Z,6.87
2023-02-13T07:34:25.918Z,7.10
2023-02-13T07:36:52.889Z,7.60
2023-02-13T07:39:21.925Z,7.27
2023-02-13T07:41:51.328Z,6.50
2023-02-13T07:44:18.390Z,7.23
2023-02-13T07:46:45.372Z,7.13
2023-02-13T07:49:12.038Z,7.43
2023-02-13T07:51:38.687Z,8.77
2023-02-13T07:54:05.370Z,7.40
2023-02-13T07:56:32.144Z,7.70
2023-02-13T07:58:59.049Z,7.23
2023-02-13T08:01:25.801Z,6.53
2023-02-13T08:03:52.601Z,7.60
2023-02-13T08:06:20.724Z,7.93
2023-02-13T08:08:47.345Z,8.33
2023-02-13T08:11:43.409Z,7.50
2023-02-13T08:14:10.119Z,8.70
2023-02-13T08:16:36.770Z,6.80
2023-02-13T08:19:03.578Z,5.90
2023-02-13T08:21:30.753Z,7.47
2023-02-13T08:23:57.553Z,6.07
2023-02-13T08:26:24.518Z,6.47
2023-02-13T08:28:51.325Z,6.43
2023-02-13T08:31:18.056Z,6.77
2023-02-13T08:33:44.930Z,6.53
2023-02-13T08:36:11.599Z,6.57
2023-02-13T08:41:05.225Z,6.43
2023-02-13T08:43:31.899Z,6.47
2023-02-13T08:46:00.321Z,6.10
2023-02-13T08:48:27.619Z,5.93
2023-02-13T08:50:54.215Z,6.00
2023-02-13T08:53:25.118Z,6.63
2023-02-13T08:55:57.883Z,5.67
2023-02-13T08:58:25.146Z,6.40
2023-02-13T09:00:52.055Z,5.47
2023-02-13T09:03:21.008Z,5.80
2023-02-13T09:05:47.731Z,5.97
2023-02-13T09:08:16.246Z,5.50
2023-02-13T09:10:43.949Z,6.07
2023-02-13T09:13:11.094Z,5.60
2023-02-13T09:15:41.142Z,6.00
2023-02-13T09:18:08.077Z,5.63
2023-02-13T09:20:36.005Z,5.90
2023-02-13T09:23:02.894Z,6.00
2023-02-13T09:25:29.611Z,5.57
2023-02-13T09:27:56.436Z,6.63
2023-02-13T09:30:23.102Z,6.13
2023-02-13T09:32:54.776Z,5.27
2023-02-13T09:35:22.755Z,6.17
2023-02-13T09:37:49.382Z,5.10
2023-02-13T09:40:28.029Z,4.57
2023-02-13T09:43:05.602Z,5.63
2023-02-13T09:45:33.025Z,4.50
2023-02-13T09:47:59.909Z,5.97
2023-02-13T09:50:31.060Z,4.30
2023-02-13T09:52:59.556Z,9.03
2023-02-13T09:55:49.944Z,4.40
2023-02-13T09:58:34.987Z,3.97
2023-02-13T10:01:06.516Z,4.37
2023-02-13T10:03:45.619Z,4.40
2023-02-13T10:06:28.426Z,4.93
2023-02-13T10:09:20.783Z,4.70
2023-02-13T10:12:23.273Z,4.30
2023-02-13T10:15:14.831Z,4.20
2023-02-13T10:17:47.902Z,5.43
2023-02-13T10:20:39.656Z,3.80
2023-02-13T10:23:16.486Z,4.77
2023-02-13T10:25:53.599Z,4.73
2023-02-13T10:28:44.305Z,4.67
2023-02-13T10:31:23.038Z,4.50
2023-02-13T10:34:02.263Z,4.43
2023-02-13T10:36:34.124Z,4.82
2023-02-13T10:39:02.990Z,5.38
2023-02-13T10:41:35.548Z,4.83
2023-02-13T10:44:08.414Z,5.85
2023-02-13T10:46:55.921Z,4.80
2023-02-13T10:49:39.862Z,4.80
2023-02-13T10:52:25.752Z,4.93
2023-02-13T10:55:18.228Z,4.93
2023-02-13T10:58:07.015Z,4.53
2023-02-13T11:00:55.179Z,4.83
2023-02-13T11:03:23.267Z,5.67
2023-02-13T11:05:51.757Z,5.10
2023-02-13T11:08:34.657Z,7.03
2023-02-13T11:11:01.436Z,5.03
2023-02-13T11:13:30.365Z,5.03
2023-02-13T11:16:09.863Z,5.10
2023-02-13T11:18:39.420Z,6.67
2023-02-13T11:21:31.791Z,5.53
2023-02-13T11:24:26.622Z,4.90
2023-02-13T11:27:01.833Z,5.93
2023-02-13T11:29:32.161Z,5.20
2023-02-13T11:32:14.159Z,5.57
2023-02-13T11:34:43.106Z,5.10
2023-02-13T11:37:12.818Z,5.00
2023-02-13T11:39:43.459Z,5.67
2023-02-13T11:42:34.636Z,5.10
2023-02-13T11:45:20.714Z,5.00
2023-02-13T11:47:47.734Z,4.85
2023-02-13T11:50:33.578Z,5.40
2023-02-13T11:53:08.380Z,5.63
2023-02-13T11:55:37.737Z,5.13
2023-02-13T11:58:21.706Z,5.70
2023-02-13T12:00:48.649Z,6.50
2023-02-13T12:03:21.531Z,4.85
2023-02-13T12:06:07.385Z,5.10
2023-02-13T12:08:38.680Z,5.28
2023-02-13T12:11:25.220Z,4.97
2023-02-13T12:13:52.141Z,5.18
2023-02-13T12:16:54.468Z,5.75
2023-02-13T12:19:40.607Z,5.72
2023-02-13T12:22:41.879Z,5.47
2023-02-13T12:25:20.197Z,5.78
2023-02-13T12:27:58.478Z,5.50
2023-02-13T12:30:56.387Z,5.18
2023-02-13T12:33:34.271Z,5.55
2023-02-13T12:36:26.967Z,5.30
2023-02-13T12:39:22.978Z,5.07
2023-02-13T12:42:12.156Z,6.80
2023-02-13T12:45:16.338Z,4.93
2023-02-13T12:47:54.966Z,5.50
2023-02-13T12:50:46.778Z,5.10
2023-02-13T12:53:50.862Z,5.78
2023-02-13T12:56:48.525Z,5.20
2023-02-13T12:59:30.422Z,5.30
2023-02-13T13:02:18.668Z,5.20
2023-02-13T13:05:04.249Z,5.30
2023-02-13T13:07:43.222Z,5.32
2023-02-13T13:10:12.984Z,4.50
2023-02-13T13:13:06.643Z,5.35
2023-02-13T13:16:18.213Z,5.97
2023-02-13T13:19:26.992Z,4.47
2023-02-13T13:21:58.783Z,6.15
2023-02-13T13:24:42.550Z,5.57
2023-02-13T13:27:32.602Z,5.15
2023-02-13T13:30:04.572Z,6.13
2023-02-13T13:32:33.070Z,5.32
2023-02-13T13:35:08.335Z,6.00
2023-02-13T13:37:50.447Z,5.30
2023-02-13T13:40:41.719Z,5.75
2023-02-13T13:43:27.124Z,5.90
2023-02-13T13:46:03.114Z,5.28
2023-02-13T13:49:07.080Z,4.93
2023-02-13T13:51:37.136Z,5.50
2023-02-13T13:54:22.336Z,4.80
2023-02-13T13:56:53.928Z,5.57
2023-02-13T13:59:46.455Z,4.20
2023-02-13T14:02:19.544Z,5.07
2023-02-13T14:05:20.068Z,5.15
2023-02-13T14:07:51.026Z,5.45
2023-02-13T14:10:21.251Z,4.80
2023-02-13T14:12:50.216Z,5.45
2023-02-13T14:15:38.295Z,5.30
2023-02-13T14:18:15.225Z,4.80
2023-02-13T14:20:42.000Z,4.50
2023-02-13T14:23:27.055Z,5.47
2023-02-13T14:26:19.553Z,4.63
2023-02-13T14:28:50.608Z,5.05
2023-02-13T14:31:31.379Z,5.22
2023-02-13T14:34:09.636Z,4.65
2023-02-13T14:36:40.057Z,6.45
2023-02-13T14:39:08.217Z,6.03
2023-02-13T14:41:46.129Z,5.72
2023-02-13T14:44:33.768Z,4.55
2023-02-13T14:47:07.231Z,5.13
2023-02-13T14:49:40.750Z,5.32
2023-02-13T14:52:17.954Z,5.00
2023-02-13T14:55:00.883Z,5.85
2023-02-13T14:57:27.618Z,6.20
2023-02-13T14:59:58.707Z,5.15
2023-02-13T15:02:28.736Z,5.07
2023-02-13T15:05:10.522Z,5.25
2023-02-13T15:07:43.202Z,4.57
2023-02-13T15:10:31.537Z,5.25
2023-02-13T15:13:00.590Z,5.80
2023-02-13T15:15:32.035Z,5.82
2023-02-13T15:18:02.924Z,6.40
2023-02-13T15:20:35.379Z,6.82
2023-02-13T15:23:03.046Z,7.18
2023-02-13T15:25:29.784Z,9.68
2023-02-13T15:27:56.716Z,5.80
2023-02-13T15:30:34.920Z,9.38
2023-02-13T15:33:18.671Z,8.95
2023-02-13T15:35:46.673Z,9.30
2023-02-13T15:38:28.873Z,7.55
2023-02-13T15:41:02.644Z,9.35
2023-02-13T15:43:35.712Z,8.40
2023-02-13T15:46:18.545Z,8.65
2023-02-13T15:48:46.274Z,8.02
2023-02-13T15:51:29.034Z,8.02
2023-02-13T15:54:07.909Z,6.03
2023-02-13T15:56:36.667Z,6.15
2023-02-13T15:59:03.767Z,5.03
2023-02-13T16:01:32.014Z,5.30
2023-02-13T16:04:06.584Z,5.28
2023-02-13T16:06:34.130Z,5.40
2023-02-13T16:11:51.861Z,4.82
2023-02-13T16:14:26.894Z,4.53
2023-02-13T16:16:58.642Z,5.13
2023-02-13T16:19:41.899Z,5.15
2023-02-13T16:22:18.427Z,5.03
2023-02-13T16:24:50.400Z,5.50
2023-02-13T16:27:19.150Z,6.13
2023-02-13T16:30:05.624Z,7.25
2023-02-13T16:32:34.723Z,6.17
2023-02-13T16:35:28.731Z,6.93
2023-02-13T16:37:58.949Z,6.88
2023-02-13T16:43:45.102Z,8.40
2023-02-13T16:46:14.952Z,5.97
2023-02-13T16:48:43.732Z,7.30
2023-02-13T16:51:11.005Z,6.70
2023-02-13T16:53:39.081Z,8.30
2023-02-13T16:56:09.193Z,2.50
2023-02-13T16:58:36.023Z,6.80
2023-02-13T17:01:04.767Z,7.83
2023-02-13T17:03:34.401Z,6.60
2023-02-13T17:06:02.282Z,6.87
2023-02-13T17:08:31.368Z,7.27
2023-02-13T17:11:06.988Z,5.77
2023-02-13T17:13:34.837Z,7.97
2023-02-13T17:16:01.624Z,6.10
2023-02-13T17:18:28.392Z,7.93
2023-02-13T17:20:55.307Z,7.53
2023-02-13T17:23:24.816Z,6.27
2023-02-13T17:25:53.032Z,7.87
2023-02-13T17:28:29.861Z,7.13
2023-02-13T17:30:59.630Z,7.43
2023-02-13T17:33:31.834Z,7.80
2023-02-13T17:35:59.537Z,9.07
2023-02-13T17:38:26.358Z,8.43
2023-02-13T17:40:53.197Z,8.30
2023-02-13T17:43:20.386Z,8.57
2023-02-13T17:45:48.097Z,8.30
2023-02-13T17:48:15.383Z,9.53
2023-02-13T17:50:42.328Z,8.33
2023-02-13T17:53:20.740Z,8.57
2023-02-13T17:55:47.514Z,10.17
2023-02-13T17:58:21.223Z,9.73
2023-02-13T18:00:50.065Z,8.70
2023-02-13T18:03:16.832Z,7.43
2023-02-13T18:05:47.914Z,8.43
2023-02-13T18:12:05.619Z,8.57
2023-02-13T18:15:09.163Z,8.20
2023-02-13T18:24:47.524Z,7.00
2023-02-13T18:31:34.263Z,7.83
2023-02-13T18:34:25.534Z,9.47
2023-02-13T18:37:05.280Z,9.83
2023-02-13T18:47:12.085Z,9.27
2023-02-13T19:04:20.660Z,7.83
2023-02-13T19:06:50.652Z,6.37
2023-02-13T19:09:20.433Z,7.30
2023-02-13T19:11:56.520Z,6.70
2023-02-13T19:17:39.053Z,7.50
2023-02-13T19:20:10.500Z,8.07
2023-02-13T19:22:44.315Z,6.73
2023-02-13T19:25:11.324Z,7.80
2023-02-13T19:27:40.954Z,6.80
2023-02-13T19:30:08.349Z,8.27
2023-02-13T19:32:35.766Z,7.73
2023-02-13T19:35:02.536Z,8.10
2023-02-13T19:37:35.743Z,7.67
2023-02-13T19:40:14.696Z,9.47
2023-02-13T19:42:41.684Z,8.83
2023-02-13T19:45:08.873Z,7.70
2023-02-13T19:47:35.609Z,7.93
2023-02-13T19:50:02.459Z,8.27
2023-02-13T19:52:29.237Z,7.17
2023-02-13T19:54:56.014Z,8.47
2023-02-13T19:57:26.469Z,7.43
2023-02-13T19:59:53.441Z,7.93
2023-02-13T20:02:23.358Z,8.83
2023-02-13T20:04:50.232Z,8.10
2023-02-13T20:07:18.472Z,7.57
2023-02-13T20:09:45.370Z,7.57
2023-02-13T20:12:15.161Z,8.83
2023-02-13T20:14:42.178Z,9.20
2023-02-13T20:17:08.998Z,7.77
2023-02-13T20:19:36.673Z,10.13
2023-02-13T20:22:03.419Z,7.23
2023-02-13T20:24:30.245Z,7.53
2023-02-13T20:26:59.592Z,10.00
2023-02-13T20:29:26.381Z,9.20
2023-02-13T20:32:01.843Z,8.50
2023-02-13T20:34:31.632Z,8.87
2023-02-13T20:37:15.012Z,8.07
2023-02-13T20:39:45.808Z,9.67
2023-02-13T20:42:12.877Z,8.77
2023-02-13T20:44:43.052Z,8.37
2023-02-13T20:47:12.729Z,8.73
2023-02-13T20:49:39.524Z,9.63
2023-02-13T20:54:49.036Z,8.70
2023-02-13T20:57:16.114Z,7.53
2023-02-13T20:59:50.757Z,8.07
2023-02-13T21:06:12.845Z,9.13
2023-02-13T21:08:53.904Z,11.30
2023-02-13T21:11:32.059Z,15.50
2023-02-13T21:17:27.742Z,11.07
2023-02-13T21:23:37.517Z,11.83
2023-02-13T21:26:57.202Z,11.97
2023-02-13T21:40:04.713Z,10.80
2023-02-13T21:43:33.253Z,9.27
2023-02-13T21:46:39.420Z,10.20
2023-02-13T21:49:12.422Z,11.27
2023-02-13T21:54:27.783Z,12.27
2023-02-13T22:01:00.861Z,13.47
2023-02-13T22:03:30.197Z,14.40
2023-02-13T22:05:57.314Z,12.27
2023-02-13T22:11:41.003Z,13.70
2023-02-13T22:14:27.713Z,13.37
2023-02-13T22:17:11.616Z,14.03
2023-02-13T22:19:41.381Z,14.17
2023-02-13T22:22:15.902Z,13.57
2023-02-13T22:25:13.019Z,13.93
2023-02-13T22:28:08.737Z,17.13
2023-02-13T22:31:02.752Z,13.67
2023-02-13T22:34:14.879Z,17.07
2023-02-13T22:37:15.069Z,14.10
2023-02-13T22:40:33.443Z,14.93
2023-02-13T22:48:07.181Z,15.07
2023-02-13T22:51:08.504Z,14.63
2023-02-13T22:57:12.137Z,14.60
2023-02-13T23:02:53.283Z,13.87
2023-02-13T23:05:20.822Z,16.00
2023-02-13T23:07:47.624Z,15.70
2023-02-13T23:10:14.554Z,15.80
2023-02-13T23:12:53.006Z,16.47
2023-02-13T23:15:20.166Z,16.80
2023-02-13T23:17:47.013Z,15.90
2023-02-13T23:20:13.945Z,14.37
2023-02-13T23:22:40.570Z,14.37
2023-02-13T23:25:08.022Z,17.20
2023-02-13T23:27:35.913Z,15.83
2023-02-13T23:30:04.439Z,15.93
2023-02-13T23:32:31.869Z,16.03
2023-02-13T23:34:58.825Z,16.13
2023-02-13T23:37:25.492Z,16.10
2023-02-13T23:39:52.456Z,13.03
2023-02-13T23:42:19.090Z,13.77
2023-02-13T23:44:45.917Z,13.83
2023-02-13T23:47:12.593Z,13.10
2023-02-13T23:49:39.393Z,14.87
2023-02-13T23:52:06.108Z,13.60
2023-02-13T23:54:32.844Z,13.27
2023-02-13T23:57:00.284Z,13.77
2023-02-13T23:59:27.320Z,16.13
